GLD965 SBRJ-SBSP
Flight info
| Callsign | GLD965 |
|---|---|
| Flight time | 0h 44m |
| Altitude | 32000 |
| Route | NAXOP UZ45 IBDAL |
| Aircraft | A320/M-SDE3FGHIRWY/LB1 |
Departure
| Time | 2026-05-05 01:31 |
|---|---|
| Airport | Santos Dumont Airport (SBRJ) |
Arrival
| Time | 2026-05-05 02:16 |
|---|---|
| Airport | Congonhas–Deputado Freitas Nobre Airport (SBSP) |
| Time | Latitude | Longitude | Altitude | Speed | Heading |
|---|---|---|---|---|---|
| 2026-05-05 01:06 | -22.91170 | -43.16585 | -20 ft | 0 kts | 268° |
| 2026-05-05 01:23 | -22.91170 | -43.16576 | 26 ft | 3 kts | 271° |
| 2026-05-05 01:23 | -22.91171 | -43.16554 | 24 ft | 3 kts | 279° |
| 2026-05-05 01:23 | -22.91178 | -43.16533 | 23 ft | 3 kts | 311° |
| 2026-05-05 01:23 | -22.91194 | -43.16520 | 23 ft | 3 kts | 335° |
| 2026-05-05 01:24 | -22.91196 | -43.16519 | 23 ft | 0 kts | 335° |
| 2026-05-05 01:25 | -22.91186 | -43.16522 | 27 ft | 7 kts | 347° |
| 2026-05-05 01:25 | -22.91112 | -43.16528 | 27 ft | 13 kts | 356° |
| 2026-05-05 01:25 | -22.91007 | -43.16537 | 23 ft | 17 kts | 355° |
| 2026-05-05 01:25 | -22.90884 | -43.16548 | 25 ft | 19 kts | 355° |
| 2026-05-05 01:26 | -22.90745 | -43.16558 | 25 ft | 16 kts | 359° |
| 2026-05-05 01:26 | -22.90644 | -43.16554 | 25 ft | 16 kts | 2° |
| 2026-05-05 01:26 | -22.90532 | -43.16553 | 24 ft | 11 kts | 9° |
| 2026-05-05 01:26 | -22.90495 | -43.16494 | 23 ft | 0 kts | 81° |
| 2026-05-05 01:29 | -22.90488 | -43.16435 | 25 ft | 15 kts | 82° |
| 2026-05-05 01:30 | -22.90476 | -43.16354 | 22 ft | 17 kts | 77° |
| 2026-05-05 01:30 | -22.90488 | -43.16325 | 25 ft | 0 kts | 145° |
| 2026-05-05 01:30 | -22.90500 | -43.16320 | 23 ft | 18 kts | 163° |
| 2026-05-05 01:30 | -22.90950 | -43.16279 | 21 ft | 109 kts | 175° |
| 2026-05-05 01:31 | -22.91940 | -43.16223 | 171 ft | 163 kts | 176° |
| 2026-05-05 01:31 | -22.93118 | -43.16189 | 779 ft | 180 kts | 175° |
| 2026-05-05 01:31 | -22.94434 | -43.16061 | 1281 ft | 200 kts | 160° |
| 2026-05-05 01:31 | -22.95771 | -43.15464 | 1922 ft | 222 kts | 154° |
| 2026-05-05 01:32 | -22.97359 | -43.15108 | 2422 ft | 245 kts | 176° |
| 2026-05-05 01:32 | -22.99123 | -43.15018 | 3021 ft | 261 kts | 176° |
| 2026-05-05 01:32 | -23.00953 | -43.14924 | 3906 ft | 265 kts | 178° |
| 2026-05-05 01:32 | -23.02766 | -43.14830 | 5283 ft | 256 kts | 179° |
| 2026-05-05 01:33 | -23.04536 | -43.14737 | 6582 ft | 255 kts | 179° |
| 2026-05-05 01:33 | -23.06319 | -43.14652 | 7473 ft | 267 kts | 182° |
| 2026-05-05 01:33 | -23.08103 | -43.15060 | 8165 ft | 260 kts | 209° |
| 2026-05-05 01:33 | -23.09535 | -43.16300 | 8962 ft | 268 kts | 223° |
| 2026-05-05 01:34 | -23.10884 | -43.17745 | 9810 ft | 276 kts | 227° |
| 2026-05-05 01:34 | -23.12135 | -43.19359 | 10627 ft | 283 kts | 230° |
| 2026-05-05 01:34 | -23.13399 | -43.21021 | 11453 ft | 288 kts | 230° |
| 2026-05-05 01:34 | -23.14725 | -43.22684 | 12324 ft | 294 kts | 227° |
| 2026-05-05 01:35 | -23.16326 | -43.24151 | 12931 ft | 313 kts | 210° |
| 2026-05-05 01:35 | -23.18397 | -43.25136 | 13328 ft | 336 kts | 204° |
| 2026-05-05 01:35 | -23.20603 | -43.26213 | 13764 ft | 356 kts | 207° |
| 2026-05-05 01:35 | -23.22796 | -43.27592 | 14193 ft | 374 kts | 215° |
| 2026-05-05 01:36 | -23.24684 | -43.29537 | 15039 ft | 372 kts | 234° |
| 2026-05-05 01:36 | -23.25918 | -43.31936 | 16469 ft | 356 kts | 246° |
| 2026-05-05 01:36 | -23.26956 | -43.34371 | 17551 ft | 357 kts | 242° |
| 2026-05-05 01:36 | -23.28404 | -43.36561 | 18294 ft | 365 kts | 234° |
| 2026-05-05 01:37 | -23.29619 | -43.38979 | 19012 ft | 366 kts | 251° |
| 2026-05-05 01:37 | -23.30207 | -43.41684 | 19771 ft | 369 kts | 260° |
| 2026-05-05 01:37 | -23.30653 | -43.44450 | 20474 ft | 373 kts | 259° |
| 2026-05-05 01:37 | -23.31207 | -43.47223 | 21199 ft | 377 kts | 256° |
| 2026-05-05 01:38 | -23.31894 | -43.49994 | 21892 ft | 381 kts | 254° |
| 2026-05-05 01:38 | -23.32671 | -43.52764 | 22506 ft | 385 kts | 253° |
| 2026-05-05 01:38 | -23.33500 | -43.55554 | 23102 ft | 389 kts | 252° |
| 2026-05-05 01:38 | -23.34348 | -43.58357 | 23711 ft | 392 kts | 252° |
| 2026-05-05 01:39 | -23.35205 | -43.61179 | 24227 ft | 394 kts | 252° |
| 2026-05-05 01:39 | -23.36068 | -43.64027 | 24764 ft | 396 kts | 252° |
| 2026-05-05 01:39 | -23.36929 | -43.66883 | 25327 ft | 398 kts | 252° |
| 2026-05-05 01:39 | -23.37796 | -43.69761 | 25865 ft | 400 kts | 252° |
| 2026-05-05 01:40 | -23.38664 | -43.72649 | 26311 ft | 402 kts | 252° |
| 2026-05-05 01:40 | -23.39526 | -43.75520 | 26763 ft | 405 kts | 252° |
| 2026-05-05 01:40 | -23.40402 | -43.78439 | 27228 ft | 407 kts | 252° |
| 2026-05-05 01:40 | -23.41282 | -43.81373 | 27670 ft | 409 kts | 252° |
| 2026-05-05 01:41 | -23.42164 | -43.84317 | 28097 ft | 411 kts | 252° |
| 2026-05-05 01:41 | -23.43052 | -43.87281 | 28505 ft | 413 kts | 252° |
| 2026-05-05 01:41 | -23.43944 | -43.90262 | 28906 ft | 415 kts | 252° |
| 2026-05-05 01:41 | -23.44839 | -43.93256 | 29310 ft | 417 kts | 252° |
| 2026-05-05 01:42 | -23.45738 | -43.96264 | 29655 ft | 419 kts | 252° |
| 2026-05-05 01:42 | -23.46641 | -43.99288 | 29948 ft | 423 kts | 252° |
| 2026-05-05 01:42 | -23.48476 | -44.05436 | 29995 ft | 422 kts | 252° |
| 2026-05-05 01:43 | -23.50321 | -44.11632 | 29998 ft | 435 kts | 252° |
| 2026-05-05 01:43 | -23.52048 | -44.17948 | 30001 ft | 435 kts | 256° |
| 2026-05-05 01:44 | -23.53506 | -44.24337 | 29997 ft | 435 kts | 256° |
| 2026-05-05 01:44 | -23.54966 | -44.30693 | 29994 ft | 434 kts | 256° |
| 2026-05-05 01:45 | -23.56430 | -44.37087 | 29993 ft | 434 kts | 256° |
| 2026-05-05 01:45 | -23.57889 | -44.43481 | 29991 ft | 434 kts | 256° |
| 2026-05-05 01:46 | -23.59343 | -44.49868 | 29992 ft | 434 kts | 256° |
| 2026-05-05 01:46 | -23.60795 | -44.56256 | 29992 ft | 434 kts | 256° |
| 2026-05-05 01:47 | -23.62246 | -44.62654 | 29992 ft | 434 kts | 256° |
| 2026-05-05 01:47 | -23.63692 | -44.69043 | 29990 ft | 434 kts | 256° |
| 2026-05-05 01:48 | -23.65135 | -44.75430 | 29985 ft | 434 kts | 256° |
| 2026-05-05 01:48 | -23.66567 | -44.81785 | 29992 ft | 434 kts | 256° |
| 2026-05-05 01:49 | -23.68005 | -44.88178 | 29986 ft | 434 kts | 256° |
| 2026-05-05 01:49 | -23.69442 | -44.94577 | 29986 ft | 434 kts | 256° |
| 2026-05-05 01:50 | -23.70875 | -45.00974 | 29990 ft | 434 kts | 256° |
| 2026-05-05 01:50 | -23.72308 | -45.07378 | 29991 ft | 434 kts | 256° |
| 2026-05-05 01:51 | -23.73735 | -45.13778 | 29994 ft | 434 kts | 256° |
| 2026-05-05 01:51 | -23.75160 | -45.20176 | 29990 ft | 434 kts | 256° |
| 2026-05-05 01:52 | -23.76574 | -45.26543 | 29991 ft | 434 kts | 256° |
| 2026-05-05 01:52 | -23.77986 | -45.32940 | 29992 ft | 433 kts | 256° |
| 2026-05-05 01:53 | -23.79397 | -45.39347 | 29985 ft | 434 kts | 256° |
| 2026-05-05 01:53 | -23.80807 | -45.45753 | 29983 ft | 434 kts | 256° |
| 2026-05-05 01:54 | -23.82218 | -45.52161 | 29982 ft | 434 kts | 256° |
| 2026-05-05 01:54 | -23.83628 | -45.58586 | 29982 ft | 434 kts | 256° |
| 2026-05-05 01:55 | -23.85032 | -45.64996 | 29977 ft | 434 kts | 256° |
| 2026-05-05 01:55 | -23.86425 | -45.71369 | 29973 ft | 434 kts | 256° |
| 2026-05-05 01:56 | -23.87824 | -45.77784 | 29949 ft | 433 kts | 256° |
| 2026-05-05 01:56 | -23.88509 | -45.80930 | 29361 ft | 421 kts | 256° |
| 2026-05-05 01:56 | -23.89187 | -45.84048 | 27980 ft | 426 kts | 256° |
| 2026-05-05 01:57 | -23.89878 | -45.87227 | 26735 ft | 431 kts | 256° |
| 2026-05-05 01:57 | -23.90568 | -45.90409 | 25831 ft | 428 kts | 256° |
| 2026-05-05 01:57 | -23.91250 | -45.93555 | 24998 ft | 423 kts | 256° |
| 2026-05-05 01:57 | -23.91923 | -45.96667 | 24095 ft | 418 kts | 256° |
| 2026-05-05 01:58 | -23.92589 | -45.99745 | 23013 ft | 415 kts | 256° |
| 2026-05-05 01:58 | -23.93248 | -46.02795 | 21980 ft | 410 kts | 256° |
| 2026-05-05 01:58 | -23.93899 | -46.05805 | 20976 ft | 404 kts | 256° |
| 2026-05-05 01:58 | -23.94540 | -46.08775 | 20004 ft | 400 kts | 256° |
| 2026-05-05 01:59 | -23.95176 | -46.11725 | 19043 ft | 396 kts | 256° |
| 2026-05-05 01:59 | -23.95804 | -46.14641 | 18053 ft | 392 kts | 256° |
| 2026-05-05 01:59 | -23.96424 | -46.17523 | 17090 ft | 386 kts | 256° |
| 2026-05-05 01:59 | -23.97034 | -46.20361 | 16162 ft | 381 kts | 256° |
| 2026-05-05 02:00 | -23.97615 | -46.23162 | 15419 ft | 372 kts | 259° |
| 2026-05-05 02:00 | -23.97783 | -46.25912 | 15098 ft | 354 kts | 272° |
| 2026-05-05 02:00 | -23.97452 | -46.28504 | 14865 ft | 336 kts | 282° |
| 2026-05-05 02:00 | -23.96725 | -46.30873 | 14559 ft | 322 kts | 289° |
| 2026-05-05 02:01 | -23.95945 | -46.33084 | 14276 ft | 309 kts | 289° |
| 2026-05-05 02:01 | -23.95187 | -46.35266 | 13980 ft | 297 kts | 289° |
| 2026-05-05 02:01 | -23.94481 | -46.37304 | 13693 ft | 284 kts | 289° |
| 2026-05-05 02:01 | -23.93786 | -46.39305 | 13430 ft | 272 kts | 289° |
| 2026-05-05 02:02 | -23.93128 | -46.41195 | 13187 ft | 279 kts | 289° |
| 2026-05-05 02:02 | -23.92416 | -46.43252 | 12913 ft | 292 kts | 289° |
| 2026-05-05 02:02 | -23.91692 | -46.45329 | 12640 ft | 290 kts | 289° |
| 2026-05-05 02:02 | -23.91073 | -46.47101 | 12408 ft | 286 kts | 289° |
| 2026-05-05 02:03 | -23.90370 | -46.49107 | 12160 ft | 280 kts | 289° |
| 2026-05-05 02:03 | -23.89680 | -46.51075 | 11898 ft | 274 kts | 289° |
| 2026-05-05 02:03 | -23.89007 | -46.52996 | 11650 ft | 268 kts | 289° |
| 2026-05-05 02:03 | -23.88347 | -46.54881 | 11398 ft | 264 kts | 289° |
| 2026-05-05 02:04 | -23.87696 | -46.56741 | 11149 ft | 259 kts | 289° |
| 2026-05-05 02:04 | -23.87055 | -46.58569 | 10914 ft | 254 kts | 289° |
| 2026-05-05 02:04 | -23.86435 | -46.60340 | 10684 ft | 252 kts | 289° |
| 2026-05-05 02:04 | -23.85666 | -46.62054 | 10450 ft | 252 kts | 304° |
| 2026-05-05 02:05 | -23.84453 | -46.63433 | 10218 ft | 253 kts | 322° |
| 2026-05-05 02:05 | -23.82965 | -46.64469 | 9967 ft | 253 kts | 326° |
| 2026-05-05 02:05 | -23.81480 | -46.65485 | 9746 ft | 252 kts | 326° |
| 2026-05-05 02:05 | -23.79975 | -46.66528 | 9504 ft | 258 kts | 325° |
| 2026-05-05 02:06 | -23.78444 | -46.67593 | 9265 ft | 261 kts | 325° |
| 2026-05-05 02:06 | -23.76922 | -46.68651 | 9071 ft | 255 kts | 325° |
| 2026-05-05 02:06 | -23.75469 | -46.69659 | 9045 ft | 241 kts | 325° |
| 2026-05-05 02:06 | -23.74095 | -46.70611 | 9054 ft | 227 kts | 325° |
| 2026-05-05 02:07 | -23.72814 | -46.71500 | 9045 ft | 214 kts | 325° |
| 2026-05-05 02:07 | -23.71606 | -46.72339 | 9071 ft | 199 kts | 325° |
| 2026-05-05 02:07 | -23.70434 | -46.73153 | 8846 ft | 201 kts | 325° |
| 2026-05-05 02:07 | -23.69239 | -46.73983 | 8538 ft | 207 kts | 325° |
| 2026-05-05 02:08 | -23.68000 | -46.74845 | 8243 ft | 213 kts | 325° |
| 2026-05-05 02:08 | -23.66743 | -46.75717 | 7778 ft | 218 kts | 325° |
| 2026-05-05 02:08 | -23.65467 | -46.76601 | 7414 ft | 216 kts | 325° |
| 2026-05-05 02:08 | -23.64204 | -46.77473 | 7089 ft | 213 kts | 325° |
| 2026-05-05 02:09 | -23.62957 | -46.78337 | 6756 ft | 212 kts | 325° |
| 2026-05-05 02:09 | -23.61725 | -46.79192 | 6413 ft | 208 kts | 325° |
| 2026-05-05 02:09 | -23.60515 | -46.80027 | 6094 ft | 203 kts | 326° |
| 2026-05-05 02:09 | -23.59332 | -46.80847 | 5765 ft | 200 kts | 328° |
| 2026-05-05 02:10 | -23.58027 | -46.81344 | 5534 ft | 197 kts | 351° |
| 2026-05-05 02:10 | -23.56704 | -46.81247 | 5486 ft | 185 kts | 13° |
| 2026-05-05 02:10 | -23.55592 | -46.80679 | 5483 ft | 170 kts | 34° |
| 2026-05-05 02:10 | -23.54798 | -46.79827 | 5488 ft | 157 kts | 53° |
| 2026-05-05 02:11 | -23.54179 | -46.78746 | 5879 ft | 169 kts | 56° |
| 2026-05-05 02:11 | -23.53545 | -46.77652 | 6120 ft | 176 kts | 56° |
| 2026-05-05 02:11 | -23.52925 | -46.76475 | 5680 ft | 180 kts | 60° |
| 2026-05-05 02:11 | -23.52317 | -46.75378 | 5632 ft | 159 kts | 54° |
| 2026-05-05 02:12 | -23.51699 | -46.74400 | 5365 ft | 157 kts | 53° |
| 2026-05-05 02:12 | -23.50949 | -46.72166 | 4628 ft | 170 kts | 105° |
| 2026-05-05 02:12 | -23.51667 | -46.71193 | 4363 ft | 166 kts | 158° |
| 2026-05-05 02:13 | -23.52726 | -46.70978 | 4339 ft | 151 kts | 172° |
| 2026-05-05 02:13 | -23.53769 | -46.70803 | 4160 ft | 149 kts | 169° |
| 2026-05-05 02:13 | -23.54789 | -46.70659 | 4177 ft | 159 kts | 175° |
| 2026-05-05 02:13 | -23.55907 | -46.70530 | 4106 ft | 165 kts | 156° |
| 2026-05-05 02:14 | -23.56832 | -46.69836 | 3877 ft | 159 kts | 139° |
| 2026-05-05 02:14 | -23.57703 | -46.69099 | 3679 ft | 166 kts | 142° |
| 2026-05-05 02:14 | -23.58681 | -46.68383 | 3459 ft | 171 kts | 145° |
| 2026-05-05 02:14 | -23.59659 | -46.67725 | 3229 ft | 172 kts | 146° |
| 2026-05-05 02:15 | -23.60634 | -46.67051 | 2994 ft | 159 kts | 146° |
| 2026-05-05 02:15 | -23.61530 | -46.66430 | 2786 ft | 147 kts | 146° |
| 2026-05-05 02:15 | -23.62107 | -46.66041 | 2613 ft | 142 kts | 147° |
| 2026-05-05 02:15 | -23.62946 | -46.65467 | 2631 ft | 51 kts | 151° |
| 2026-05-05 02:16 | -23.63168 | -46.65383 | 2639 ft | 19 kts | 219° |
| 2026-05-05 02:16 | -23.63122 | -46.65479 | 2636 ft | 18 kts | 330° |
| 2026-05-05 02:16 | -23.62995 | -46.65524 | 2630 ft | 18 kts | 337° |
| 2026-05-05 02:16 | -23.62877 | -46.65605 | 2626 ft | 22 kts | 328° |
| 2026-05-05 02:17 | -23.62740 | -46.65699 | 2622 ft | 25 kts | 328° |
| 2026-05-05 02:17 | -23.62665 | -46.65782 | 2618 ft | 13 kts | 276° |
| 2026-05-05 02:17 | -23.62692 | -46.65840 | 2618 ft | 5 kts | 240° |
| 2026-05-05 02:17 | -23.62692 | -46.65841 | 2618 ft | 0 kts | 241° |